createdAt,value
2017-10-14T00:02:17.739Z,88.01
2017-10-14T00:04:46.408Z,88.05
2017-10-14T00:07:15.026Z,88.12
2017-10-14T00:09:43.681Z,88.14
2017-10-14T00:12:12.212Z,88.05
2017-10-14T00:14:40.830Z,88.35
2017-10-14T00:17:09.462Z,88.34
2017-10-14T00:19:38.126Z,88.37
2017-10-14T00:22:06.780Z,88.40
2017-10-14T00:24:35.400Z,88.22
2017-10-14T00:27:04.092Z,88.27
2017-10-14T00:29:32.707Z,88.24
2017-10-14T00:32:01.415Z,88.37
2017-10-14T00:34:30.055Z,88.26
2017-10-14T00:36:58.699Z,88.31
2017-10-14T00:39:27.384Z,88.46
2017-10-14T00:41:55.998Z,88.29
2017-10-14T00:44:24.631Z,88.20
2017-10-14T00:46:53.316Z,88.19
2017-10-14T00:49:21.956Z,88.41
2017-10-14T00:51:50.595Z,88.39
2017-10-14T00:54:19.303Z,88.32
2017-10-14T00:56:47.623Z,88.12
2017-10-14T00:59:16.003Z,88.16
2017-10-14T01:01:44.626Z,88.25
2017-10-14T01:04:13.285Z,88.25
2017-10-14T01:06:41.390Z,88.22
2017-10-14T01:09:10.087Z,88.24
2017-10-14T01:11:38.764Z,88.20
2017-10-14T01:14:07.394Z,88.32
2017-10-14T01:16:36.086Z,88.36
2017-10-14T01:19:04.727Z,88.51
2017-10-14T01:21:33.399Z,88.33
2017-10-14T01:24:01.751Z,88.44
2017-10-14T01:26:40.242Z,88.50
2017-10-14T01:29:08.454Z,88.42
2017-10-14T01:31:37.126Z,88.42
2017-10-14T01:34:05.438Z,88.47
2017-10-14T01:36:33.810Z,88.47
2017-10-14T01:39:02.539Z,88.71
2017-10-14T01:41:31.196Z,88.47
2017-10-14T01:43:59.890Z,88.34
2017-10-14T01:46:28.198Z,88.54
2017-10-14T01:48:56.888Z,88.49
2017-10-14T01:51:25.206Z,88.38
2017-10-14T01:53:53.567Z,88.51
2017-10-14T01:56:21.913Z,88.58
2017-10-14T01:58:50.619Z,88.52
2017-10-14T02:01:19.240Z,88.53
2017-10-14T02:03:47.858Z,88.37
2017-10-14T02:06:16.520Z,88.46
2017-10-14T02:08:45.222Z,88.31
2017-10-14T02:11:13.908Z,88.29
2017-10-14T02:13:42.534Z,88.31
2017-10-14T02:16:11.237Z,88.48
2017-10-14T02:18:39.876Z,88.59
2017-10-14T02:21:08.627Z,88.34
2017-10-14T02:23:37.267Z,88.65
2017-10-14T02:26:05.887Z,88.50
2017-10-14T02:28:34.565Z,88.38
2017-10-14T02:31:03.241Z,88.36
2017-10-14T02:33:31.912Z,88.34
2017-10-14T02:36:00.626Z,88.52
2017-10-14T02:38:29.254Z,88.66
2017-10-14T02:40:57.870Z,88.57
2017-10-14T02:43:26.556Z,88.62
2017-10-14T02:45:55.205Z,88.39
2017-10-14T02:48:23.831Z,88.24
2017-10-14T02:50:52.489Z,88.33
2017-10-14T02:53:21.113Z,88.49
2017-10-14T02:55:49.760Z,88.52
2017-10-14T02:58:18.455Z,88.64
2017-10-14T03:00:47.086Z,88.48
2017-10-14T03:03:15.782Z,88.46
2017-10-14T03:05:44.408Z,88.53
2017-10-14T03:08:13.050Z,88.58
2017-10-14T03:10:41.705Z,88.70
2017-10-14T03:13:10.309Z,88.55
2017-10-14T03:15:38.981Z,88.57
2017-10-14T03:18:07.682Z,88.60
2017-10-14T03:20:36.350Z,88.65
2017-10-14T03:23:04.965Z,88.37
2017-10-14T03:25:33.663Z,88.66
2017-10-14T03:28:02.322Z,88.65
2017-10-14T03:30:30.998Z,88.58
2017-10-14T03:33:01.340Z,88.50
2017-10-14T03:35:30.016Z,88.65
2017-10-14T03:37:58.634Z,88.55
2017-10-14T03:40:27.307Z,88.50
2017-10-14T03:42:55.927Z,88.63
2017-10-14T03:45:24.598Z,88.75
2017-10-14T03:47:53.214Z,88.64
2017-10-14T03:50:21.833Z,88.53
2017-10-14T03:52:50.495Z,88.59
2017-10-14T03:55:19.122Z,88.45
2017-10-14T03:57:47.791Z,88.53
2017-10-14T04:00:16.523Z,88.47
2017-10-14T04:02:45.150Z,88.49
2017-10-14T04:05:13.770Z,88.66
2017-10-14T04:07:42.526Z,88.65
2017-10-14T04:10:11.173Z,88.47
2017-10-14T04:12:39.835Z,88.64
2017-10-14T04:15:08.486Z,88.47
2017-10-14T04:17:38.531Z,88.41
2017-10-14T04:20:07.216Z,88.65
2017-10-14T04:22:35.895Z,88.50
2017-10-14T04:25:04.510Z,88.57
2017-10-14T04:27:37.306Z,88.46
2017-10-14T04:30:05.929Z,88.47
2017-10-14T04:32:34.552Z,88.49
2017-10-14T04:35:03.214Z,88.63
2017-10-14T04:37:35.752Z,88.59
2017-10-14T04:40:04.423Z,88.78
2017-10-14T04:42:33.110Z,88.44
2017-10-14T04:45:01.763Z,88.66
2017-10-14T04:47:30.422Z,88.72
2017-10-14T04:49:59.048Z,88.65
2017-10-14T04:52:27.708Z,88.75
2017-10-14T04:54:56.346Z,88.72
2017-10-14T04:57:25.028Z,88.61
2017-10-14T05:00:10.008Z,88.70
2017-10-14T05:02:39.538Z,88.70
2017-10-14T05:05:08.187Z,88.77
2017-10-14T05:07:38.446Z,88.81
2017-10-14T05:10:07.192Z,88.75
2017-10-14T05:12:35.821Z,88.62
2017-10-14T05:15:04.302Z,88.70
2017-10-14T05:17:40.068Z,88.70
2017-10-14T05:20:08.723Z,88.58
2017-10-14T05:22:37.243Z,88.70
2017-10-14T05:25:05.862Z,88.76
2017-10-14T05:27:37.869Z,88.80
2017-10-14T05:30:06.552Z,88.79
2017-10-14T05:32:35.087Z,88.93
2017-10-14T05:35:03.562Z,88.96
2017-10-14T05:37:35.195Z,88.93
2017-10-14T05:40:03.656Z,88.92
2017-10-14T05:42:32.318Z,88.86
2017-10-14T05:45:00.946Z,88.86
2017-10-14T05:47:29.598Z,88.62
2017-10-14T05:49:58.211Z,88.66
2017-10-14T05:52:26.879Z,88.83
2017-10-14T05:54:55.511Z,88.85
2017-10-14T05:57:24.170Z,88.86
2017-10-14T05:59:52.883Z,88.93
2017-10-14T06:02:21.507Z,88.82
2017-10-14T06:04:50.183Z,88.88
2017-10-14T06:07:18.799Z,89.04
2017-10-14T06:09:47.467Z,88.99
2017-10-14T06:12:16.094Z,89.04
2017-10-14T06:14:44.759Z,89.03
2017-10-14T06:17:13.402Z,89.03
2017-10-14T06:19:42.072Z,89.16
2017-10-14T06:22:10.726Z,89.12
2017-10-14T06:24:39.357Z,88.99
2017-10-14T06:27:08.029Z,89.23
2017-10-14T06:29:36.647Z,89.03
2017-10-14T06:32:05.279Z,89.12
2017-10-14T06:34:33.943Z,89.04
2017-10-14T06:37:02.576Z,89.25
2017-10-14T06:39:31.256Z,89.23
2017-10-14T06:41:59.926Z,89.25
2017-10-14T06:44:28.470Z,89.21
2017-10-14T06:46:57.095Z,89.17
2017-10-14T06:49:25.726Z,89.25
2017-10-14T06:51:54.428Z,89.18
2017-10-14T06:54:23.110Z,89.23
2017-10-14T06:56:51.774Z,89.25
2017-10-14T06:59:20.421Z,89.14
2017-10-14T07:01:49.083Z,89.27
2017-10-14T07:04:17.739Z,89.26
2017-10-14T07:06:46.382Z,89.26
2017-10-14T07:09:15.057Z,89.30
2017-10-14T07:11:43.684Z,89.33
2017-10-14T07:14:12.374Z,89.19
2017-10-14T07:16:41.041Z,89.19
2017-10-14T07:19:09.678Z,89.37
2017-10-14T07:21:38.346Z,89.25
2017-10-14T07:24:06.963Z,89.33
2017-10-14T07:26:35.627Z,89.06
2017-10-14T07:29:04.246Z,89.00
2017-10-14T07:31:32.899Z,88.96
2017-10-14T07:34:01.513Z,89.14
2017-10-14T07:36:30.183Z,89.09
2017-10-14T07:38:58.861Z,89.16
2017-10-14T07:41:27.561Z,89.20
2017-10-14T07:43:56.182Z,89.18
2017-10-14T07:46:24.852Z,89.06
2017-10-14T07:48:53.479Z,88.99
2017-10-14T07:51:22.164Z,89.10
2017-10-14T07:53:50.785Z,89.21
2017-10-14T07:56:19.402Z,89.07
2017-10-14T07:58:48.082Z,89.14
2017-10-14T08:01:16.555Z,89.19
2017-10-14T08:03:45.034Z,89.12
2017-10-14T08:06:13.709Z,89.02
2017-10-14T08:08:42.326Z,89.05
2017-10-14T08:11:10.836Z,89.04
2017-10-14T08:13:39.443Z,89.03
2017-10-14T08:16:08.108Z,89.15
2017-10-14T08:18:36.742Z,89.28
2017-10-14T08:21:05.435Z,89.05
2017-10-14T08:23:34.039Z,89.00
2017-10-14T08:26:02.728Z,89.05
2017-10-14T08:28:31.200Z,88.94
2017-10-14T08:31:00.001Z,89.11
2017-10-14T08:33:28.634Z,88.94
2017-10-14T08:36:11.800Z,89.17
2017-10-14T08:38:41.283Z,89.22
2017-10-14T08:41:09.989Z,89.12
2017-10-14T08:43:38.665Z,89.04
2017-10-14T08:46:07.298Z,89.21
2017-10-14T08:48:35.948Z,89.23
2017-10-14T08:51:04.632Z,89.19
2017-10-14T08:53:33.265Z,89.13
2017-10-14T08:56:01.935Z,89.26
2017-10-14T08:58:30.546Z,89.13
2017-10-14T09:00:59.230Z,89.13
2017-10-14T09:03:27.744Z,89.05
2017-10-14T09:05:56.362Z,88.99
2017-10-14T09:08:25.031Z,89.06
2017-10-14T09:10:53.645Z,89.23
2017-10-14T09:13:22.318Z,89.13
2017-10-14T09:15:50.938Z,89.30
2017-10-14T09:18:19.608Z,89.31
2017-10-14T09:20:48.307Z,89.32
2017-10-14T09:23:16.958Z,89.38
2017-10-14T09:25:45.471Z,89.34
2017-10-14T09:28:14.005Z,89.53
2017-10-14T09:30:42.684Z,89.56
2017-10-14T09:33:11.336Z,89.52
2017-10-14T09:35:39.975Z,89.68
2017-10-14T09:38:08.671Z,89.47
2017-10-14T09:40:37.196Z,89.40
2017-10-14T09:43:05.906Z,89.53
2017-10-14T09:45:34.524Z,89.57
2017-10-14T09:48:03.183Z,89.75
2017-10-14T09:50:31.794Z,89.77
2017-10-14T09:53:00.454Z,89.65
2017-10-14T09:55:29.107Z,89.64
2017-10-14T09:57:57.745Z,89.78
2017-10-14T10:00:26.414Z,89.55
2017-10-14T10:02:55.037Z,89.47
2017-10-14T10:05:23.662Z,89.47
2017-10-14T10:07:52.328Z,89.51
2017-10-14T10:10:20.938Z,89.46
2017-10-14T10:12:49.593Z,89.62
2017-10-14T10:15:18.222Z,89.56
2017-10-14T10:17:46.883Z,89.53
2017-10-14T10:20:15.515Z,89.53
2017-10-14T10:22:44.176Z,89.48
2017-10-14T10:25:12.851Z,89.39
2017-10-14T10:27:41.540Z,89.25
2017-10-14T10:30:10.171Z,89.25
2017-10-14T10:32:38.697Z,89.32
2017-10-14T10:35:07.324Z,89.24
2017-10-14T10:37:36.207Z,89.26
2017-10-14T10:40:04.864Z,89.27
2017-10-14T10:42:33.527Z,89.32
2017-10-14T10:45:02.147Z,89.34
2017-10-14T10:47:35.380Z,89.29
2017-10-14T10:50:04.007Z,89.39
2017-10-14T10:52:32.676Z,89.27
2017-10-14T10:55:01.298Z,89.17
2017-10-14T10:57:31.540Z,89.22
2017-10-14T11:00:00.255Z,89.28
2017-10-14T11:02:28.879Z,89.25
2017-10-14T11:04:57.558Z,89.22
2017-10-14T11:07:26.187Z,89.16
2017-10-14T11:09:54.843Z,89.10
2017-10-14T11:12:23.479Z,89.23
2017-10-14T11:14:52.163Z,89.19
2017-10-14T11:17:20.815Z,89.17
2017-10-14T11:19:49.474Z,89.10
2017-10-14T11:22:18.094Z,89.02
2017-10-14T11:24:46.716Z,88.87
2017-10-14T11:27:15.374Z,89.06
2017-10-14T11:29:43.979Z,89.09
2017-10-14T11:32:12.667Z,89.21
2017-10-14T11:34:41.291Z,89.03
2017-10-14T11:37:09.926Z,89.17
2017-10-14T11:39:38.615Z,89.18
2017-10-14T11:42:07.226Z,89.18
2017-10-14T11:44:35.892Z,89.25
2017-10-14T11:47:04.526Z,89.34
2017-10-14T11:49:33.211Z,89.37
2017-10-14T11:52:01.959Z,89.26
2017-10-14T11:54:30.579Z,89.54
2017-10-14T11:56:59.247Z,89.41
2017-10-14T11:59:27.871Z,89.25
2017-10-14T12:01:56.534Z,89.30
2017-10-14T12:04:25.179Z,89.18
2017-10-14T12:06:53.847Z,89.29
2017-10-14T12:09:22.524Z,89.20
2017-10-14T12:11:53.877Z,89.29
2017-10-14T12:14:22.498Z,89.20
2017-10-14T12:16:51.133Z,89.23
2017-10-14T12:19:19.802Z,89.33
2017-10-14T12:21:48.421Z,89.33
2017-10-14T12:24:17.034Z,89.23
2017-10-14T12:26:45.703Z,89.22
2017-10-14T12:29:14.374Z,89.16
2017-10-14T12:31:43.017Z,89.10
2017-10-14T12:34:11.679Z,89.20
2017-10-14T12:36:40.355Z,89.28
2017-10-14T12:39:09.006Z,89.20
2017-10-14T12:41:37.691Z,89.01
2017-10-14T12:44:06.326Z,89.35
2017-10-14T12:46:34.983Z,89.24
2017-10-14T12:49:03.652Z,89.20
2017-10-14T12:51:32.288Z,89.15
2017-10-14T12:54:00.954Z,89.23
2017-10-14T12:56:29.592Z,89.27
2017-10-14T12:58:58.265Z,89.34
2017-10-14T13:01:26.902Z,89.23
2017-10-14T13:03:55.579Z,89.34
2017-10-14T13:06:24.198Z,89.22
2017-10-14T13:08:52.871Z,89.25
2017-10-14T13:11:21.526Z,89.24
2017-10-14T13:13:50.167Z,89.24
2017-10-14T13:16:18.793Z,89.24
2017-10-14T13:18:47.471Z,89.26
2017-10-14T13:21:16.104Z,89.18
2017-10-14T13:23:44.758Z,89.27
2017-10-14T13:26:13.371Z,89.34
2017-10-14T13:28:42.022Z,89.40
2017-10-14T13:31:10.651Z,89.24
2017-10-14T13:33:39.274Z,89.30
2017-10-14T13:36:07.929Z,89.36
2017-10-14T13:38:36.558Z,89.37
2017-10-14T13:41:05.179Z,89.18
2017-10-14T13:43:33.839Z,89.07
2017-10-14T13:46:02.465Z,89.13
2017-10-14T13:48:31.163Z,89.23
2017-10-14T13:50:59.786Z,89.23
2017-10-14T13:53:28.458Z,89.37
2017-10-14T13:55:57.083Z,89.39
2017-10-14T13:58:25.714Z,89.41
2017-10-14T14:00:54.383Z,89.34
2017-10-14T14:03:23.004Z,89.48
2017-10-14T14:05:51.684Z,89.43
2017-10-14T14:08:20.310Z,89.37
2017-10-14T14:10:48.934Z,89.35
2017-10-14T14:13:17.592Z,89.34
2017-10-14T14:15:46.219Z,89.46
2017-10-14T14:18:14.889Z,89.55
2017-10-14T14:20:43.575Z,89.51
2017-10-14T14:23:12.236Z,89.42
2017-10-14T14:25:40.722Z,89.40
2017-10-14T14:28:09.267Z,89.40
2017-10-14T14:30:37.766Z,89.46
2017-10-14T14:33:06.281Z,89.43
2017-10-14T14:35:34.987Z,89.42
2017-10-14T14:38:03.510Z,89.56
2017-10-14T14:40:31.995Z,89.43
2017-10-14T14:43:00.466Z,89.42
2017-10-14T14:45:29.121Z,89.54
2017-10-14T14:47:57.754Z,89.63
2017-10-14T14:50:26.415Z,89.49
2017-10-14T14:52:55.031Z,89.61
2017-10-14T14:55:23.686Z,89.62
2017-10-14T14:57:52.366Z,89.74
2017-10-14T15:00:21.014Z,89.67
2017-10-14T15:02:49.639Z,89.85
2017-10-14T15:05:18.294Z,89.87
2017-10-14T15:07:46.921Z,89.78
2017-10-14T15:10:15.591Z,89.82
2017-10-14T15:12:44.232Z,89.79
2017-10-14T15:15:12.879Z,89.84
2017-10-14T15:17:41.505Z,90.07
2017-10-14T15:20:10.169Z,90.03
2017-10-14T15:22:38.804Z,89.98
2017-10-14T15:25:07.458Z,89.90
2017-10-14T15:27:36.424Z,89.89
2017-10-14T15:30:05.119Z,90.05
2017-10-14T15:32:33.739Z,90.04
2017-10-14T15:35:02.261Z,89.88
2017-10-14T15:37:32.541Z,89.98
2017-10-14T15:40:01.212Z,89.96
2017-10-14T15:42:29.914Z,89.82
2017-10-14T15:44:58.546Z,89.91
2017-10-14T15:47:27.199Z,89.93
2017-10-14T15:49:55.883Z,89.92
2017-10-14T15:52:24.498Z,89.89
2017-10-14T15:54:53.157Z,89.93
2017-10-14T15:57:21.630Z,89.78
2017-10-14T15:59:50.298Z,89.76
2017-10-14T16:02:18.926Z,89.78
2017-10-14T16:04:47.603Z,89.70
2017-10-14T16:07:16.214Z,89.68
2017-10-14T16:09:44.867Z,89.55
2017-10-14T16:12:13.482Z,89.49
2017-10-14T16:14:42.147Z,89.51
2017-10-14T16:17:10.762Z,89.51
2017-10-14T16:19:39.423Z,89.58
2017-10-14T16:22:08.086Z,89.53
2017-10-14T16:24:36.698Z,89.46
2017-10-14T16:27:05.354Z,89.51
2017-10-14T16:29:33.855Z,89.50
2017-10-14T16:32:02.475Z,89.39
2017-10-14T16:34:31.134Z,89.54
2017-10-14T16:36:59.764Z,89.57
2017-10-14T16:39:28.376Z,89.40
2017-10-14T16:41:57.058Z,89.46
2017-10-14T16:44:25.678Z,89.35
2017-10-14T16:46:54.294Z,89.39
2017-10-14T16:49:22.953Z,89.30
2017-10-14T16:51:51.611Z,89.27
2017-10-14T16:54:20.311Z,89.20
2017-10-14T16:56:48.946Z,89.14
2017-10-14T16:59:17.584Z,89.14
2017-10-14T17:01:46.249Z,89.26
2017-10-14T17:04:14.888Z,89.27
2017-10-14T17:06:43.574Z,89.21
2017-10-14T17:09:12.198Z,89.28
2017-10-14T17:11:40.858Z,89.25
2017-10-14T17:14:09.531Z,89.18
2017-10-14T17:16:38.159Z,89.09
2017-10-14T17:19:06.829Z,89.20
2017-10-14T17:21:35.528Z,89.17
2017-10-14T17:24:04.194Z,89.24
2017-10-14T17:26:32.809Z,89.29
2017-10-14T17:29:01.494Z,89.23
2017-10-14T17:31:30.109Z,89.29
2017-10-14T17:33:58.806Z,89.18
2017-10-14T17:36:34.127Z,89.05
2017-10-14T17:39:02.811Z,89.09
2017-10-14T17:41:31.419Z,89.00
2017-10-14T17:44:00.045Z,89.16
2017-10-14T17:46:28.714Z,89.21
2017-10-14T17:48:57.384Z,89.13
2017-10-14T17:51:26.011Z,89.10
2017-10-14T17:53:54.617Z,89.08
2017-10-14T17:56:23.285Z,89.08
2017-10-14T17:58:51.902Z,89.13
2017-10-14T18:01:20.563Z,89.13
2017-10-14T18:03:49.238Z,89.24
2017-10-14T18:06:17.854Z,89.30
2017-10-14T18:08:46.517Z,89.46
2017-10-14T18:11:15.242Z,89.29
2017-10-14T18:13:43.880Z,89.33
2017-10-14T18:16:12.558Z,89.39
2017-10-14T18:18:41.177Z,89.45
2017-10-14T18:21:09.862Z,89.43
2017-10-14T18:23:38.539Z,89.49
2017-10-14T18:26:07.164Z,89.41
2017-10-14T18:28:35.827Z,89.43
2017-10-14T18:31:04.449Z,89.26
2017-10-14T18:33:33.091Z,89.35
2017-10-14T18:36:01.787Z,89.35
2017-10-14T18:38:30.418Z,89.18
2017-10-14T18:40:59.043Z,89.29
2017-10-14T18:43:27.699Z,89.32
2017-10-14T18:45:56.313Z,89.30
2017-10-14T18:48:24.991Z,89.27
2017-10-14T18:50:53.703Z,89.42
2017-10-14T18:53:22.326Z,89.38
2017-10-14T18:55:50.997Z,89.28
2017-10-14T18:58:19.650Z,89.36
2017-10-14T19:00:48.314Z,89.22
2017-10-14T19:03:16.935Z,89.27
2017-10-14T19:05:45.546Z,89.22
2017-10-14T19:08:14.228Z,89.16
2017-10-14T19:10:42.871Z,89.24
2017-10-14T19:13:11.534Z,89.11
2017-10-14T19:15:40.196Z,89.20
2017-10-14T19:18:08.830Z,89.10
2017-10-14T19:20:37.512Z,89.11
2017-10-14T19:23:06.211Z,89.20
2017-10-14T19:25:34.826Z,89.39
2017-10-14T19:28:03.342Z,89.25
2017-10-14T19:30:32.024Z,89.27
2017-10-14T19:33:00.640Z,89.30
2017-10-14T19:35:29.256Z,89.29
2017-10-14T19:37:57.932Z,89.29
2017-10-14T19:40:26.605Z,89.18
2017-10-14T19:42:55.218Z,89.18
2017-10-14T19:45:23.907Z,89.36
2017-10-14T19:47:52.524Z,89.34
2017-10-14T19:50:21.214Z,89.31
2017-10-14T19:52:49.879Z,89.27
2017-10-14T19:55:18.506Z,89.10
2017-10-14T19:57:47.186Z,89.18
2017-10-14T20:00:15.810Z,89.05
2017-10-14T20:02:44.467Z,89.09
2017-10-14T20:05:13.108Z,89.21
2017-10-14T20:07:41.785Z,89.04
2017-10-14T20:10:10.410Z,89.03
2017-10-14T20:12:39.088Z,89.18
2017-10-14T20:15:07.731Z,89.29
2017-10-14T20:17:37.774Z,89.24
2017-10-14T20:20:06.391Z,89.23
2017-10-14T20:22:35.056Z,89.26
2017-10-14T20:25:03.739Z,89.34
2017-10-14T20:27:36.915Z,89.26
2017-10-14T20:30:05.432Z,89.39
2017-10-14T20:32:34.112Z,89.44
2017-10-14T20:35:02.723Z,89.28
2017-10-14T20:37:35.702Z,89.35
2017-10-14T20:40:04.375Z,89.36
2017-10-14T20:42:33.004Z,89.29
2017-10-14T20:45:01.676Z,89.50
2017-10-14T20:47:34.236Z,89.39
2017-10-14T20:50:02.916Z,89.41
2017-10-14T20:52:31.603Z,89.39
2017-10-14T20:55:00.227Z,89.27
2017-10-14T20:57:28.854Z,89.22
2017-10-14T20:59:57.523Z,89.23
2017-10-14T21:02:26.019Z,89.35
2017-10-14T21:04:54.704Z,89.31
2017-10-14T21:07:23.326Z,89.20
2017-10-14T21:09:52.178Z,89.17
2017-10-14T21:12:20.834Z,89.17
2017-10-14T21:14:49.510Z,89.15
2017-10-14T21:17:18.134Z,89.29
2017-10-14T21:19:46.831Z,89.15
2017-10-14T21:22:15.483Z,89.16
2017-10-14T21:24:44.099Z,89.15
2017-10-14T21:27:12.758Z,89.16
2017-10-14T21:29:41.384Z,89.06
2017-10-14T21:32:10.041Z,89.15
2017-10-14T21:34:38.579Z,89.16
2017-10-14T21:37:07.203Z,88.97
2017-10-14T21:39:35.805Z,88.91
2017-10-14T21:42:04.495Z,88.90
2017-10-14T21:44:33.364Z,88.96
2017-10-14T21:47:02.130Z,88.92
2017-10-14T21:49:30.754Z,88.90
2017-10-14T21:51:59.369Z,88.90
2017-10-14T21:54:28.044Z,88.93
2017-10-14T21:56:56.682Z,88.87
2017-10-14T21:59:25.338Z,88.89
2017-10-14T22:01:54.008Z,88.92
2017-10-14T22:04:22.621Z,88.95
2017-10-14T22:06:51.303Z,88.98
2017-10-14T22:09:19.951Z,89.06
2017-10-14T22:11:48.463Z,89.02
2017-10-14T22:14:17.147Z,89.04
2017-10-14T22:16:45.766Z,88.98
2017-10-14T22:19:14.463Z,88.89
2017-10-14T22:21:43.081Z,88.98
2017-10-14T22:24:11.749Z,89.09
2017-10-14T22:26:40.405Z,89.05
2017-10-14T22:29:09.037Z,89.09
2017-10-14T22:31:37.699Z,89.15
2017-10-14T22:34:06.315Z,89.26
2017-10-14T22:36:34.951Z,89.22
2017-10-14T22:39:03.647Z,89.31
2017-10-14T22:41:32.397Z,89.33
2017-10-14T22:44:01.055Z,89.23
2017-10-14T22:46:29.678Z,89.30
2017-10-14T22:48:58.336Z,89.43
2017-10-14T22:51:26.966Z,89.21
2017-10-14T22:53:55.631Z,89.10
2017-10-14T22:56:24.355Z,89.15
2017-10-14T22:58:52.983Z,89.07
2017-10-14T23:01:21.671Z,89.31
2017-10-14T23:03:50.299Z,89.26
2017-10-14T23:06:18.845Z,89.38
2017-10-14T23:08:47.471Z,89.38
2017-10-14T23:11:16.096Z,89.54
2017-10-14T23:13:44.783Z,89.42
2017-10-14T23:16:13.412Z,89.25
2017-10-14T23:18:42.061Z,89.49
2017-10-14T23:21:10.725Z,89.61
2017-10-14T23:23:39.358Z,89.44
2017-10-14T23:26:07.987Z,89.38
2017-10-14T23:28:36.655Z,89.43
2017-10-14T23:31:05.287Z,89.35
2017-10-14T23:33:33.951Z,89.21
2017-10-14T23:36:02.586Z,89.25
2017-10-14T23:38:31.211Z,89.38
2017-10-14T23:40:59.906Z,89.31
2017-10-14T23:43:28.534Z,89.51
2017-10-14T23:45:57.160Z,89.57
2017-10-14T23:48:25.838Z,89.57
2017-10-14T23:50:54.459Z,89.44
2017-10-14T23:53:23.118Z,89.52
2017-10-14T23:55:51.743Z,89.63
2017-10-14T23:58:20.357Z,89.60
